sensor_id;sensor_type;location;lat;lon;timestamp;temperature;humidity
774;DHT22;370;48.810;9.150;2023-04-03T00:01:25;5.10;1.00
774;DHT22;370;48.810;9.150;2023-04-03T00:03:52;5.00;1.00
774;DHT22;370;48.810;9.150;2023-04-03T00:06:19;4.90;1.00
774;DHT22;370;48.810;9.150;2023-04-03T00:08:46;4.80;1.00
774;DHT22;370;48.810;9.150;2023-04-03T00:11:13;4.80;1.00
774;DHT22;370;48.810;9.150;2023-04-03T00:13:42;4.60;1.00
774;DHT22;370;48.810;9.150;2023-04-03T00:16:10;4.70;1.00
774;DHT22;370;48.810;9.150;2023-04-03T00:18:37;4.70;1.00
774;DHT22;370;48.810;9.150;2023-04-03T00:21:05;4.70;1.00
774;DHT22;370;48.810;9.150;2023-04-03T00:23:32;4.70;1.00
774;DHT22;370;48.810;9.150;2023-04-03T00:25:59;4.70;1.00
774;DHT22;370;48.810;9.150;2023-04-03T00:28:26;4.80;1.00
774;DHT22;370;48.810;9.150;2023-04-03T00:30:54;4.80;1.00
774;DHT22;370;48.810;9.150;2023-04-03T00:33:21;4.80;1.00
774;DHT22;370;48.810;9.150;2023-04-03T00:35:49;4.80;1.00
774;DHT22;370;48.810;9.150;2023-04-03T00:38:16;4.80;1.00
774;DHT22;370;48.810;9.150;2023-04-03T00:40:45;4.80;1.00
774;DHT22;370;48.810;9.150;2023-04-03T00:43:19;4.80;1.00
774;DHT22;370;48.810;9.150;2023-04-03T00:45:47;4.70;1.00
774;DHT22;370;48.810;9.150;2023-04-03T00:48:18;4.70;1.00
774;DHT22;370;48.810;9.150;2023-04-03T00:50:46;4.70;1.00
774;DHT22;370;48.810;9.150;2023-04-03T00:53:16;4.70;1.00
774;DHT22;370;48.810;9.150;2023-04-03T00:55:44;4.70;1.00
774;DHT22;370;48.810;9.150;2023-04-03T00:58:14;4.60;1.00
774;DHT22;370;48.810;9.150;2023-04-03T01:00:46;4.60;1.00
774;DHT22;370;48.810;9.150;2023-04-03T01:03:15;4.70;1.00
774;DHT22;370;48.810;9.150;2023-04-03T01:05:42;4.70;1.00
774;DHT22;370;48.810;9.150;2023-04-03T01:08:09;4.60;1.00
774;DHT22;370;48.810;9.150;2023-04-03T01:10:35;4.70;1.00
774;DHT22;370;48.810;9.150;2023-04-03T01:13:18;4.70;1.00
774;DHT22;370;48.810;9.150;2023-04-03T01:15:45;4.50;1.00
774;DHT22;370;48.810;9.150;2023-04-03T01:18:12;4.50;1.00
774;DHT22;370;48.810;9.150;2023-04-03T01:23:51;4.40;1.00
774;DHT22;370;48.810;9.150;2023-04-03T01:26:19;4.30;1.00
774;DHT22;370;48.810;9.150;2023-04-03T01:28:46;4.30;2.10
774;DHT22;370;48.810;9.150;2023-04-03T01:31:19;4.30;2.10
774;DHT22;370;48.810;9.150;2023-04-03T01:33:50;4.30;2.10
774;DHT22;370;48.810;9.150;2023-04-03T01:36:18;4.30;2.20
774;DHT22;370;48.810;9.150;2023-04-03T01:38:46;4.40;1.80
774;DHT22;370;48.810;9.150;2023-04-03T01:41:12;4.40;2.20
774;DHT22;370;48.810;9.150;2023-04-03T01:43:39;4.30;2.10
774;DHT22;370;48.810;9.150;2023-04-03T01:46:06;4.40;2.20
774;DHT22;370;48.810;9.150;2023-04-03T01:48:33;4.40;1.10
774;DHT22;370;48.810;9.150;2023-04-03T01:51:01;4.40;2.20
774;DHT22;370;48.810;9.150;2023-04-03T01:53:28;4.50;1.50
774;DHT22;370;48.810;9.150;2023-04-03T01:55:55;4.50;1.70
774;DHT22;370;48.810;9.150;2023-04-03T01:58:22;4.50;1.00
774;DHT22;370;48.810;9.150;2023-04-03T02:00:49;4.60;1.00
774;DHT22;370;48.810;9.150;2023-04-03T02:03:15;4.60;1.00
774;DHT22;370;48.810;9.150;2023-04-03T02:05:42;4.60;1.00
774;DHT22;370;48.810;9.150;2023-04-03T02:08:10;4.60;1.00
774;DHT22;370;48.810;9.150;2023-04-03T02:10:37;4.60;1.00
774;DHT22;370;48.810;9.150;2023-04-03T02:13:04;4.60;1.00
774;DHT22;370;48.810;9.150;2023-04-03T02:15:31;4.70;1.00
774;DHT22;370;48.810;9.150;2023-04-03T02:17:57;4.60;1.00
774;DHT22;370;48.810;9.150;2023-04-03T02:20:24;4.60;1.00
774;DHT22;370;48.810;9.150;2023-04-03T02:22:51;4.70;1.00
774;DHT22;370;48.810;9.150;2023-04-03T02:25:19;4.60;1.00
774;DHT22;370;48.810;9.150;2023-04-03T02:27:46;4.60;1.00
774;DHT22;370;48.810;9.150;2023-04-03T02:30:13;4.50;1.00
774;DHT22;370;48.810;9.150;2023-04-03T02:32:40;4.60;1.00
774;DHT22;370;48.810;9.150;2023-04-03T02:35:08;4.70;1.00
774;DHT22;370;48.810;9.150;2023-04-03T02:37:35;4.50;1.00
774;DHT22;370;48.810;9.150;2023-04-03T02:40:02;4.60;1.00
774;DHT22;370;48.810;9.150;2023-04-03T02:42:30;4.70;1.00
774;DHT22;370;48.810;9.150;2023-04-03T02:44:57;4.80;1.00
774;DHT22;370;48.810;9.150;2023-04-03T02:47:26;4.80;1.00
774;DHT22;370;48.810;9.150;2023-04-03T02:49:53;4.80;1.00
774;DHT22;370;48.810;9.150;2023-04-03T02:52:20;4.90;1.00
774;DHT22;370;48.810;9.150;2023-04-03T02:54:46;4.90;1.00
774;DHT22;370;48.810;9.150;2023-04-03T02:57:13;4.90;1.00
774;DHT22;370;48.810;9.150;2023-04-03T02:59:41;4.90;1.00
774;DHT22;370;48.810;9.150;2023-04-03T03:02:08;4.90;1.00
774;DHT22;370;48.810;9.150;2023-04-03T03:04:35;5.00;1.00
774;DHT22;370;48.810;9.150;2023-04-03T03:07:02;5.00;1.00
774;DHT22;370;48.810;9.150;2023-04-03T03:09:28;4.90;1.00
774;DHT22;370;48.810;9.150;2023-04-03T03:11:56;5.00;1.00
774;DHT22;370;48.810;9.150;2023-04-03T03:14:22;5.00;1.00
774;DHT22;370;48.810;9.150;2023-04-03T03:16:50;5.10;1.00
774;DHT22;370;48.810;9.150;2023-04-03T03:19:17;5.00;1.00
774;DHT22;370;48.810;9.150;2023-04-03T03:21:44;5.00;1.00
774;DHT22;370;48.810;9.150;2023-04-03T03:24:10;5.00;1.00
774;DHT22;370;48.810;9.150;2023-04-03T03:26:38;5.00;1.00
774;DHT22;370;48.810;9.150;2023-04-03T03:29:05;5.00;1.00
774;DHT22;370;48.810;9.150;2023-04-03T03:31:32;5.00;1.00
774;DHT22;370;48.810;9.150;2023-04-03T03:34:00;5.00;1.00
774;DHT22;370;48.810;9.150;2023-04-03T03:36:26;5.10;1.00
774;DHT22;370;48.810;9.150;2023-04-03T03:38:53;5.10;1.00
774;DHT22;370;48.810;9.150;2023-04-03T03:41:20;5.10;1.00
774;DHT22;370;48.810;9.150;2023-04-03T03:43:46;5.10;1.00
774;DHT22;370;48.810;9.150;2023-04-03T03:46:13;5.10;1.00
774;DHT22;370;48.810;9.150;2023-04-03T03:48:40;5.10;1.00
774;DHT22;370;48.810;9.150;2023-04-03T03:51:08;5.00;1.00
774;DHT22;370;48.810;9.150;2023-04-03T03:53:35;5.00;1.00
774;DHT22;370;48.810;9.150;2023-04-03T03:56:01;4.90;1.00
774;DHT22;370;48.810;9.150;2023-04-03T03:58:28;4.90;1.00
774;DHT22;370;48.810;9.150;2023-04-03T04:00:55;4.90;1.00
774;DHT22;370;48.810;9.150;2023-04-03T04:03:22;5.00;1.00
774;DHT22;370;48.810;9.150;2023-04-03T04:05:49;5.00;1.00
774;DHT22;370;48.810;9.150;2023-04-03T04:08:17;4.90;1.00
774;DHT22;370;48.810;9.150;2023-04-03T04:10:43;4.80;1.00
774;DHT22;370;48.810;9.150;2023-04-03T04:13:10;4.80;1.00
774;DHT22;370;48.810;9.150;2023-04-03T04:15:37;4.80;1.00
774;DHT22;370;48.810;9.150;2023-04-03T04:18:03;4.80;1.00
774;DHT22;370;48.810;9.150;2023-04-03T04:20:30;4.80;1.00
774;DHT22;370;48.810;9.150;2023-04-03T04:22:57;4.80;1.00
774;DHT22;370;48.810;9.150;2023-04-03T04:25:25;4.90;1.00
774;DHT22;370;48.810;9.150;2023-04-03T04:27:52;4.90;1.00
774;DHT22;370;48.810;9.150;2023-04-03T04:30:19;4.90;1.00
774;DHT22;370;48.810;9.150;2023-04-03T04:32:45;4.80;1.00
774;DHT22;370;48.810;9.150;2023-04-03T04:35:12;4.90;1.00
774;DHT22;370;48.810;9.150;2023-04-03T04:37:39;4.90;1.00
774;DHT22;370;48.810;9.150;2023-04-03T04:40:06;4.90;1.00
774;DHT22;370;48.810;9.150;2023-04-03T04:42:35;4.80;1.00
774;DHT22;370;48.810;9.150;2023-04-03T04:45:01;4.90;1.00
774;DHT22;370;48.810;9.150;2023-04-03T04:47:29;4.90;1.00
774;DHT22;370;48.810;9.150;2023-04-03T04:49:56;5.00;1.00
774;DHT22;370;48.810;9.150;2023-04-03T04:52:22;4.90;1.00
774;DHT22;370;48.810;9.150;2023-04-03T04:54:49;4.90;1.00
774;DHT22;370;48.810;9.150;2023-04-03T04:57:16;4.80;1.00
774;DHT22;370;48.810;9.150;2023-04-03T04:59:44;4.80;1.00
774;DHT22;370;48.810;9.150;2023-04-03T05:02:11;4.90;1.00
774;DHT22;370;48.810;9.150;2023-04-03T05:04:38;4.90;1.00
774;DHT22;370;48.810;9.150;2023-04-03T05:07:04;5.00;1.00
774;DHT22;370;48.810;9.150;2023-04-03T05:09:31;5.00;1.00
774;DHT22;370;48.810;9.150;2023-04-03T05:11:58;5.00;1.00
774;DHT22;370;48.810;9.150;2023-04-03T05:14:25;5.00;1.00
774;DHT22;370;48.810;9.150;2023-04-03T05:16:53;5.10;1.00
774;DHT22;370;48.810;9.150;2023-04-03T05:19:20;5.10;1.00
774;DHT22;370;48.810;9.150;2023-04-03T05:21:47;5.20;1.00
774;DHT22;370;48.810;9.150;2023-04-03T05:24:14;5.20;1.00
774;DHT22;370;48.810;9.150;2023-04-03T05:26:41;5.20;1.00
774;DHT22;370;48.810;9.150;2023-04-03T05:29:08;5.20;1.00
774;DHT22;370;48.810;9.150;2023-04-03T05:31:35;5.20;1.00
774;DHT22;370;48.810;9.150;2023-04-03T05:34:03;5.20;1.00
774;DHT22;370;48.810;9.150;2023-04-03T05:36:31;5.20;1.00
774;DHT22;370;48.810;9.150;2023-04-03T05:38:58;5.20;1.00
774;DHT22;370;48.810;9.150;2023-04-03T05:41:24;5.20;1.00
774;DHT22;370;48.810;9.150;2023-04-03T05:43:51;5.30;1.00
774;DHT22;370;48.810;9.150;2023-04-03T05:46:19;5.40;1.00
774;DHT22;370;48.810;9.150;2023-04-03T05:48:46;5.50;1.00
774;DHT22;370;48.810;9.150;2023-04-03T05:51:16;5.40;1.00
774;DHT22;370;48.810;9.150;2023-04-03T05:53:44;5.40;1.00
774;DHT22;370;48.810;9.150;2023-04-03T05:56:11;5.40;1.00
774;DHT22;370;48.810;9.150;2023-04-03T05:58:38;5.40;1.00
774;DHT22;370;48.810;9.150;2023-04-03T06:01:05;5.50;1.00
774;DHT22;370;48.810;9.150;2023-04-03T06:03:31;5.50;1.00
774;DHT22;370;48.810;9.150;2023-04-03T06:05:58;5.70;1.00
774;DHT22;370;48.810;9.150;2023-04-03T06:08:26;5.70;1.00
774;DHT22;370;48.810;9.150;2023-04-03T06:10:53;5.80;1.00
774;DHT22;370;48.810;9.150;2023-04-03T06:13:20;5.70;1.00
774;DHT22;370;48.810;9.150;2023-04-03T06:15:47;5.80;1.00
774;DHT22;370;48.810;9.150;2023-04-03T06:18:14;5.80;1.00
774;DHT22;370;48.810;9.150;2023-04-03T06:20:40;5.80;1.00
774;DHT22;370;48.810;9.150;2023-04-03T06:23:07;6.00;1.00
774;DHT22;370;48.810;9.150;2023-04-03T06:25:36;6.10;1.00
774;DHT22;370;48.810;9.150;2023-04-03T06:28:03;6.00;1.00
774;DHT22;370;48.810;9.150;2023-04-03T06:30:29;6.00;1.00
774;DHT22;370;48.810;9.150;2023-04-03T06:32:56;6.00;1.00
774;DHT22;370;48.810;9.150;2023-04-03T06:35:24;6.00;1.00
774;DHT22;370;48.810;9.150;2023-04-03T06:37:52;6.20;1.00
774;DHT22;370;48.810;9.150;2023-04-03T06:40:21;6.10;1.00
774;DHT22;370;48.810;9.150;2023-04-03T06:42:49;6.10;1.00
774;DHT22;370;48.810;9.150;2023-04-03T06:45:16;6.10;1.00
774;DHT22;370;48.810;9.150;2023-04-03T06:47:43;6.20;1.00
774;DHT22;370;48.810;9.150;2023-04-03T06:50:11;6.30;1.00
774;DHT22;370;48.810;9.150;2023-04-03T06:52:39;6.40;1.00
774;DHT22;370;48.810;9.150;2023-04-03T06:55:07;6.40;1.00
774;DHT22;370;48.810;9.150;2023-04-03T06:57:35;6.40;1.00
774;DHT22;370;48.810;9.150;2023-04-03T07:00:05;6.50;1.00
774;DHT22;370;48.810;9.150;2023-04-03T07:02:34;6.40;1.00
774;DHT22;370;48.810;9.150;2023-04-03T07:05:01;6.30;1.00
774;DHT22;370;48.810;9.150;2023-04-03T07:07:28;6.40;1.00
774;DHT22;370;48.810;9.150;2023-04-03T07:09:55;6.40;1.00
774;DHT22;370;48.810;9.150;2023-04-03T07:12:21;6.50;1.00
774;DHT22;370;48.810;9.150;2023-04-03T07:14:48;6.60;1.00
774;DHT22;370;48.810;9.150;2023-04-03T07:17:16;6.70;1.00
774;DHT22;370;48.810;9.150;2023-04-03T07:19:43;6.80;1.00
774;DHT22;370;48.810;9.150;2023-04-03T07:22:10;7.00;1.00
774;DHT22;370;48.810;9.150;2023-04-03T07:24:37;7.30;1.00
774;DHT22;370;48.810;9.150;2023-04-03T07:27:04;7.40;1.00
774;DHT22;370;48.810;9.150;2023-04-03T07:29:31;7.60;1.00
774;DHT22;370;48.810;9.150;2023-04-03T07:31:58;7.80;1.00
774;DHT22;370;48.810;9.150;2023-04-03T07:34:26;7.60;1.00
774;DHT22;370;48.810;9.150;2023-04-03T07:36:52;7.70;1.00
774;DHT22;370;48.810;9.150;2023-04-03T07:39:20;7.60;1.00
774;DHT22;370;48.810;9.150;2023-04-03T07:41:46;7.70;1.00
774;DHT22;370;48.810;9.150;2023-04-03T07:44:13;7.90;1.00
774;DHT22;370;48.810;9.150;2023-04-03T07:46:40;8.10;1.00
774;DHT22;370;48.810;9.150;2023-04-03T07:49:07;8.30;1.00
774;DHT22;370;48.810;9.150;2023-04-03T07:51:36;8.50;1.00
774;DHT22;370;48.810;9.150;2023-04-03T07:54:03;8.60;1.00
774;DHT22;370;48.810;9.150;2023-04-03T07:56:30;8.80;1.00
774;DHT22;370;48.810;9.150;2023-04-03T07:58:57;8.90;1.00
774;DHT22;370;48.810;9.150;2023-04-03T08:01:27;8.80;1.00
774;DHT22;370;48.810;9.150;2023-04-03T08:03:57;9.00;1.00
774;DHT22;370;48.810;9.150;2023-04-03T08:06:24;9.30;1.00
774;DHT22;370;48.810;9.150;2023-04-03T08:08:57;9.30;1.00
774;DHT22;370;48.810;9.150;2023-04-03T08:11:24;9.50;1.00
774;DHT22;370;48.810;9.150;2023-04-03T08:13:52;9.60;1.00
774;DHT22;370;48.810;9.150;2023-04-03T08:16:22;9.50;1.00
774;DHT22;370;48.810;9.150;2023-04-03T08:18:52;9.60;1.00
774;DHT22;370;48.810;9.150;2023-04-03T08:21:19;9.80;1.00
774;DHT22;370;48.810;9.150;2023-04-03T08:23:48;9.90;1.00
774;DHT22;370;48.810;9.150;2023-04-03T08:26:20;10.00;1.00
774;DHT22;370;48.810;9.150;2023-04-03T08:28:48;10.10;1.00
774;DHT22;370;48.810;9.150;2023-04-03T08:31:17;10.30;1.00
774;DHT22;370;48.810;9.150;2023-04-03T08:33:45;10.70;1.00
774;DHT22;370;48.810;9.150;2023-04-03T08:36:20;11.10;1.00
774;DHT22;370;48.810;9.150;2023-04-03T08:38:48;11.40;1.00
774;DHT22;370;48.810;9.150;2023-04-03T08:41:19;11.60;1.00
774;DHT22;370;48.810;9.150;2023-04-03T08:43:57;11.50;1.00
774;DHT22;370;48.810;9.150;2023-04-03T08:46:32;11.80;1.00
774;DHT22;370;48.810;9.150;2023-04-03T08:49:00;11.80;1.00
774;DHT22;370;48.810;9.150;2023-04-03T08:51:28;12.20;1.00
774;DHT22;370;48.810;9.150;2023-04-03T08:53:58;12.70;1.00
774;DHT22;370;48.810;9.150;2023-04-03T08:56:29;12.90;1.00
774;DHT22;370;48.810;9.150;2023-04-03T08:58:59;12.90;1.00
774;DHT22;370;48.810;9.150;2023-04-03T09:01:33;12.50;1.00
774;DHT22;370;48.810;9.150;2023-04-03T09:04:01;12.40;1.00
774;DHT22;370;48.810;9.150;2023-04-03T09:06:31;12.10;1.00
774;DHT22;370;48.810;9.150;2023-04-03T09:09:09;11.80;1.00
774;DHT22;370;48.810;9.150;2023-04-03T09:11:47;11.50;1.00
774;DHT22;370;48.810;9.150;2023-04-03T09:14:22;11.30;1.00
774;DHT22;370;48.810;9.150;2023-04-03T09:16:54;11.40;1.00
774;DHT22;370;48.810;9.150;2023-04-03T09:19:35;11.40;1.00
774;DHT22;370;48.810;9.150;2023-04-03T09:22:09;11.30;1.00
774;DHT22;370;48.810;9.150;2023-04-03T09:24:38;11.10;1.00
774;DHT22;370;48.810;9.150;2023-04-03T09:27:09;10.90;1.00
774;DHT22;370;48.810;9.150;2023-04-03T09:29:40;10.80;1.00
774;DHT22;370;48.810;9.150;2023-04-03T09:32:19;10.40;1.00
774;DHT22;370;48.810;9.150;2023-04-03T09:34:48;10.10;1.00
774;DHT22;370;48.810;9.150;2023-04-03T09:37:34;9.70;1.00
774;DHT22;370;48.810;9.150;2023-04-03T09:40:03;9.40;1.00
774;DHT22;370;48.810;9.150;2023-04-03T09:42:32;9.50;1.00
774;DHT22;370;48.810;9.150;2023-04-03T09:45:02;9.60;1.00
774;DHT22;370;48.810;9.150;2023-04-03T09:47:31;9.90;1.00
774;DHT22;370;48.810;9.150;2023-04-03T09:50:18;9.80;1.00
774;DHT22;370;48.810;9.150;2023-04-03T09:52:47;9.90;1.00
774;DHT22;370;48.810;9.150;2023-04-03T09:55:16;9.70;1.00
774;DHT22;370;48.810;9.150;2023-04-03T09:57:46;9.60;1.00
774;DHT22;370;48.810;9.150;2023-04-03T10:00:22;9.60;1.00
774;DHT22;370;48.810;9.150;2023-04-03T10:02:55;9.60;1.00
774;DHT22;370;48.810;9.150;2023-04-03T10:05:34;9.60;1.00
774;DHT22;370;48.810;9.150;2023-04-03T10:08:22;9.60;1.00
774;DHT22;370;48.810;9.150;2023-04-03T10:11:06;9.70;1.00
774;DHT22;370;48.810;9.150;2023-04-03T10:13:42;9.60;1.00
774;DHT22;370;48.810;9.150;2023-04-03T10:16:18;9.60;1.00
774;DHT22;370;48.810;9.150;2023-04-03T10:18:48;9.70;1.00
774;DHT22;370;48.810;9.150;2023-04-03T10:21:23;10.00;1.00
774;DHT22;370;48.810;9.150;2023-04-03T10:24:02;10.50;1.00
774;DHT22;370;48.810;9.150;2023-04-03T10:26:37;11.00;1.00
774;DHT22;370;48.810;9.150;2023-04-03T10:29:17;11.20;1.00
774;DHT22;370;48.810;9.150;2023-04-03T10:31:54;11.20;1.00
774;DHT22;370;48.810;9.150;2023-04-03T10:34:29;11.20;1.00
774;DHT22;370;48.810;9.150;2023-04-03T10:37:01;11.20;1.00
774;DHT22;370;48.810;9.150;2023-04-03T10:39:36;10.80;1.00
774;DHT22;370;48.810;9.150;2023-04-03T10:42:10;10.50;1.00
774;DHT22;370;48.810;9.150;2023-04-03T10:44:51;10.20;1.00
774;DHT22;370;48.810;9.150;2023-04-03T10:47:21;10.00;1.00
774;DHT22;370;48.810;9.150;2023-04-03T10:49:56;9.80;1.00
774;DHT22;370;48.810;9.150;2023-04-03T10:52:31;9.80;1.00
774;DHT22;370;48.810;9.150;2023-04-03T10:55:13;9.70;1.00
774;DHT22;370;48.810;9.150;2023-04-03T10:57:46;9.70;1.00
774;DHT22;370;48.810;9.150;2023-04-03T11:00:21;9.60;1.00
774;DHT22;370;48.810;9.150;2023-04-03T11:02:52;9.60;1.00
774;DHT22;370;48.810;9.150;2023-04-03T11:05:30;9.30;1.00
774;DHT22;370;48.810;9.150;2023-04-03T11:08:01;9.30;1.00
774;DHT22;370;48.810;9.150;2023-04-03T11:10:36;9.40;1.00
774;DHT22;370;48.810;9.150;2023-04-03T11:13:10;9.60;1.00
774;DHT22;370;48.810;9.150;2023-04-03T11:15:40;9.70;1.00
774;DHT22;370;48.810;9.150;2023-04-03T11:18:11;9.80;1.00
774;DHT22;370;48.810;9.150;2023-04-03T11:20:42;10.00;1.00
774;DHT22;370;48.810;9.150;2023-04-03T11:23:19;10.00;1.00
774;DHT22;370;48.810;9.150;2023-04-03T11:25:51;10.20;1.00
774;DHT22;370;48.810;9.150;2023-04-03T11:28:19;10.10;1.00
774;DHT22;370;48.810;9.150;2023-04-03T11:30:54;9.90;1.00
774;DHT22;370;48.810;9.150;2023-04-03T11:33:41;9.60;1.00
774;DHT22;370;48.810;9.150;2023-04-03T11:36:20;9.40;1.00
774;DHT22;370;48.810;9.150;2023-04-03T11:38:54;9.20;1.00
774;DHT22;370;48.810;9.150;2023-04-03T11:41:26;9.40;1.00
774;DHT22;370;48.810;9.150;2023-04-03T11:43:58;9.50;1.00
774;DHT22;370;48.810;9.150;2023-04-03T11:46:52;9.60;1.00
774;DHT22;370;48.810;9.150;2023-04-03T11:49:52;9.90;1.00
774;DHT22;370;48.810;9.150;2023-04-03T11:56:02;10.30;1.00
774;DHT22;370;48.810;9.150;2023-04-03T11:58:31;10.70;1.00
774;DHT22;370;48.810;9.150;2023-04-03T12:01:04;10.90;1.00
774;DHT22;370;48.810;9.150;2023-04-03T12:04:08;11.10;1.00
774;DHT22;370;48.810;9.150;2023-04-03T12:06:53;10.90;1.00
774;DHT22;370;48.810;9.150;2023-04-03T12:09:35;11.10;1.00
774;DHT22;370;48.810;9.150;2023-04-03T12:12:28;11.10;1.00
774;DHT22;370;48.810;9.150;2023-04-03T12:15:16;11.10;1.00
774;DHT22;370;48.810;9.150;2023-04-03T12:17:46;11.10;1.00
774;DHT22;370;48.810;9.150;2023-04-03T12:20:56;11.10;1.00
774;DHT22;370;48.810;9.150;2023-04-03T12:23:31;11.00;1.00
774;DHT22;370;48.810;9.150;2023-04-03T12:26:06;10.60;1.00
774;DHT22;370;48.810;9.150;2023-04-03T12:28:48;10.60;1.00
774;DHT22;370;48.810;9.150;2023-04-03T12:31:19;10.50;1.00
774;DHT22;370;48.810;9.150;2023-04-03T12:34:00;10.50;1.00
774;DHT22;370;48.810;9.150;2023-04-03T12:36:37;10.70;1.00
774;DHT22;370;48.810;9.150;2023-04-03T12:39:34;10.90;1.00
774;DHT22;370;48.810;9.150;2023-04-03T12:42:22;11.30;1.00
774;DHT22;370;48.810;9.150;2023-04-03T12:44:57;11.40;1.00
774;DHT22;370;48.810;9.150;2023-04-03T12:47:34;11.30;1.00
774;DHT22;370;48.810;9.150;2023-04-03T12:50:13;11.10;1.00
774;DHT22;370;48.810;9.150;2023-04-03T12:52:46;10.90;1.00
774;DHT22;370;48.810;9.150;2023-04-03T12:55:18;11.10;1.00
774;DHT22;370;48.810;9.150;2023-04-03T12:57:45;10.90;1.00
774;DHT22;370;48.810;9.150;2023-04-03T13:00:22;10.90;1.00
774;DHT22;370;48.810;9.150;2023-04-03T13:02:53;11.00;1.00
774;DHT22;370;48.810;9.150;2023-04-03T13:05:22;11.10;1.00
774;DHT22;370;48.810;9.150;2023-04-03T13:07:54;10.90;1.00
774;DHT22;370;48.810;9.150;2023-04-03T13:10:23;11.10;1.00
774;DHT22;370;48.810;9.150;2023-04-03T13:12:54;11.20;1.00
774;DHT22;370;48.810;9.150;2023-04-03T13:15:23;11.30;1.00
774;DHT22;370;48.810;9.150;2023-04-03T13:17:50;11.40;1.00
774;DHT22;370;48.810;9.150;2023-04-03T13:20:21;11.70;1.00
774;DHT22;370;48.810;9.150;2023-04-03T13:22:55;11.90;1.00
774;DHT22;370;48.810;9.150;2023-04-03T13:25:28;11.80;1.00
774;DHT22;370;48.810;9.150;2023-04-03T13:27:58;11.90;1.00
774;DHT22;370;48.810;9.150;2023-04-03T13:30:28;12.00;1.00
774;DHT22;370;48.810;9.150;2023-04-03T13:32:56;11.80;1.00
774;DHT22;370;48.810;9.150;2023-04-03T13:35:30;11.60;1.00
774;DHT22;370;48.810;9.150;2023-04-03T13:38:01;11.60;1.00
774;DHT22;370;48.810;9.150;2023-04-03T13:40:28;11.50;1.00
774;DHT22;370;48.810;9.150;2023-04-03T13:43:00;11.20;1.00
774;DHT22;370;48.810;9.150;2023-04-03T13:45:29;11.10;1.00
774;DHT22;370;48.810;9.150;2023-04-03T13:48:16;11.30;1.00
774;DHT22;370;48.810;9.150;2023-04-03T13:50:58;11.40;1.00
774;DHT22;370;48.810;9.150;2023-04-03T13:53:43;11.80;1.00
774;DHT22;370;48.810;9.150;2023-04-03T13:56:18;12.10;1.00
774;DHT22;370;48.810;9.150;2023-04-03T13:59:00;12.20;1.00
774;DHT22;370;48.810;9.150;2023-04-03T14:01:42;12.10;1.00
774;DHT22;370;48.810;9.150;2023-04-03T14:04:16;12.30;1.00
774;DHT22;370;48.810;9.150;2023-04-03T14:06:46;12.10;1.00
774;DHT22;370;48.810;9.150;2023-04-03T14:09:16;11.90;1.00
774;DHT22;370;48.810;9.150;2023-04-03T14:11:44;11.80;1.00
774;DHT22;370;48.810;9.150;2023-04-03T14:14:16;11.60;1.00
774;DHT22;370;48.810;9.150;2023-04-03T14:16:48;11.50;1.00
774;DHT22;370;48.810;9.150;2023-04-03T14:19:22;11.50;1.00
774;DHT22;370;48.810;9.150;2023-04-03T14:21:51;11.60;1.00
774;DHT22;370;48.810;9.150;2023-04-03T14:24:21;11.60;1.00
774;DHT22;370;48.810;9.150;2023-04-03T14:26:50;11.40;1.00
774;DHT22;370;48.810;9.150;2023-04-03T14:29:19;11.50;1.00
774;DHT22;370;48.810;9.150;2023-04-03T14:31:49;11.40;1.00
774;DHT22;370;48.810;9.150;2023-04-03T14:34:16;11.40;1.00
774;DHT22;370;48.810;9.150;2023-04-03T14:36:44;11.50;1.00
774;DHT22;370;48.810;9.150;2023-04-03T14:39:16;11.70;1.00
774;DHT22;370;48.810;9.150;2023-04-03T14:41:45;11.50;1.00
774;DHT22;370;48.810;9.150;2023-04-03T14:44:13;11.30;1.00
774;DHT22;370;48.810;9.150;2023-04-03T14:46:42;11.20;1.00
774;DHT22;370;48.810;9.150;2023-04-03T14:49:14;11.20;1.00
774;DHT22;370;48.810;9.150;2023-04-03T14:51:41;12.30;1.00
774;DHT22;370;48.810;9.150;2023-04-03T14:54:13;13.60;1.00
774;DHT22;370;48.810;9.150;2023-04-03T14:56:40;15.20;1.00
774;DHT22;370;48.810;9.150;2023-04-03T14:59:11;15.40;1.00
774;DHT22;370;48.810;9.150;2023-04-03T15:01:40;14.60;1.00
774;DHT22;370;48.810;9.150;2023-04-03T15:04:10;13.80;1.00
774;DHT22;370;48.810;9.150;2023-04-03T15:06:41;13.40;1.00
774;DHT22;370;48.810;9.150;2023-04-03T15:09:18;13.00;1.00
774;DHT22;370;48.810;9.150;2023-04-03T15:11:46;12.60;1.00
774;DHT22;370;48.810;9.150;2023-04-03T15:14:30;12.30;1.00
774;DHT22;370;48.810;9.150;2023-04-03T15:17:02;11.80;1.00
774;DHT22;370;48.810;9.150;2023-04-03T15:19:36;11.40;1.00
774;DHT22;370;48.810;9.150;2023-04-03T15:22:04;11.10;1.00
774;DHT22;370;48.810;9.150;2023-04-03T15:24:31;11.00;1.00
774;DHT22;370;48.810;9.150;2023-04-03T15:26:58;11.00;1.00
774;DHT22;370;48.810;9.150;2023-04-03T15:29:28;11.20;1.00
774;DHT22;370;48.810;9.150;2023-04-03T15:31:56;11.80;1.00
774;DHT22;370;48.810;9.150;2023-04-03T15:34:23;12.80;1.00
774;DHT22;370;48.810;9.150;2023-04-03T15:36:50;13.70;1.00
774;DHT22;370;48.810;9.150;2023-04-03T15:39:21;13.60;1.00
774;DHT22;370;48.810;9.150;2023-04-03T15:41:54;13.00;1.00
774;DHT22;370;48.810;9.150;2023-04-03T15:44:27;12.60;1.00
774;DHT22;370;48.810;9.150;2023-04-03T15:46:55;13.00;1.00
774;DHT22;370;48.810;9.150;2023-04-03T15:49:23;12.80;1.00
774;DHT22;370;48.810;9.150;2023-04-03T15:51:51;12.90;1.00
774;DHT22;370;48.810;9.150;2023-04-03T15:54:19;13.90;1.00
774;DHT22;370;48.810;9.150;2023-04-03T15:56:45;14.80;1.00
774;DHT22;370;48.810;9.150;2023-04-03T15:59:12;15.10;1.00
774;DHT22;370;48.810;9.150;2023-04-03T16:01:41;15.60;1.00
774;DHT22;370;48.810;9.150;2023-04-03T16:04:09;16.30;1.00
774;DHT22;370;48.810;9.150;2023-04-03T16:06:39;16.60;1.00
774;DHT22;370;48.810;9.150;2023-04-03T16:09:06;17.10;1.00
774;DHT22;370;48.810;9.150;2023-04-03T16:11:34;17.20;1.00
774;DHT22;370;48.810;9.150;2023-04-03T16:14:04;17.20;1.00
774;DHT22;370;48.810;9.150;2023-04-03T16:16:32;17.50;1.00
774;DHT22;370;48.810;9.150;2023-04-03T16:19:02;17.90;1.00
774;DHT22;370;48.810;9.150;2023-04-03T16:21:31;18.50;1.00
774;DHT22;370;48.810;9.150;2023-04-03T16:23:58;18.40;1.00
774;DHT22;370;48.810;9.150;2023-04-03T16:26:25;17.90;1.00
774;DHT22;370;48.810;9.150;2023-04-03T16:28:53;16.90;1.00
774;DHT22;370;48.810;9.150;2023-04-03T16:31:22;15.30;1.00
774;DHT22;370;48.810;9.150;2023-04-03T16:33:54;13.80;1.00
774;DHT22;370;48.810;9.150;2023-04-03T16:36:25;12.60;1.00
774;DHT22;370;48.810;9.150;2023-04-03T16:38:55;11.50;1.00
774;DHT22;370;48.810;9.150;2023-04-03T16:41:22;11.00;1.00
774;DHT22;370;48.810;9.150;2023-04-03T16:43:49;10.40;1.00
774;DHT22;370;48.810;9.150;2023-04-03T16:46:16;10.40;1.00
774;DHT22;370;48.810;9.150;2023-04-03T16:48:44;10.70;1.00
774;DHT22;370;48.810;9.150;2023-04-03T16:51:12;11.10;1.00
774;DHT22;370;48.810;9.150;2023-04-03T16:53:41;11.10;1.00
774;DHT22;370;48.810;9.150;2023-04-03T16:56:09;10.90;1.00
774;DHT22;370;48.810;9.150;2023-04-03T16:58:43;10.50;1.00
774;DHT22;370;48.810;9.150;2023-04-03T17:01:12;10.00;1.00
774;DHT22;370;48.810;9.150;2023-04-03T17:03:40;9.60;1.00
774;DHT22;370;48.810;9.150;2023-04-03T17:06:06;9.50;1.00
774;DHT22;370;48.810;9.150;2023-04-03T17:08:44;9.40;1.00
774;DHT22;370;48.810;9.150;2023-04-03T17:11:12;9.10;1.00
774;DHT22;370;48.810;9.150;2023-04-03T17:13:39;8.90;1.00
774;DHT22;370;48.810;9.150;2023-04-03T17:16:09;8.80;1.00
774;DHT22;370;48.810;9.150;2023-04-03T17:18:37;8.60;1.00
774;DHT22;370;48.810;9.150;2023-04-03T17:21:05;8.50;1.00
774;DHT22;370;48.810;9.150;2023-04-03T17:23:32;8.30;1.00
774;DHT22;370;48.810;9.150;2023-04-03T17:26:01;8.20;1.00
774;DHT22;370;48.810;9.150;2023-04-03T17:28:28;8.10;1.00